Findlay Airport
KFDY : now visible

Airfield :











YOU CAN JOIN US ON...

 
LOGIN :

Register | Disclaimer

   EN    FR    IT 

 









Legend :    VFR   Marginal VFR   IFR   Intensive IFR   Very Intensive IFR
Visi :
Ceiling :
>= 8 km
>= 3000ft
5 to 8 km
1000 to 3000 ft
1500m to 5 km
500 to 1000 ft
800 to 1500m
200 to 500 ft
< 800m
< 200 ft
Symbols :   Thunderstorms  Fog  Heavy snow  Heavy precipitations  Wind > 20 kt






- Airport Elevation : 813 ft


KFDY - Findlay

CURRENT METAR :
  • 080653Z AUTO 16009KT 10SM CLR 00/M05 A3024 RMK AO2 SLP243 T00001050

EXPIRED METARs :
  • 080553Z AUTO 16010KT 10SM CLR 00/M05 A3025 RMK AO2 SLP249 T00001050 10006 21017 58014
  • 080453Z AUTO 17008KT 10SM CLR M02/M06 A3028 RMK AO2 SLP258 T10171056 400441067

TAF KFDY
Valid from the 08 at 06:00 until the 09 at 06:00 UTC


080534Z 0806/0906 17008KT P6SM SCT250
FM081600 20012G22KT P6SM OVC100
FM082000 20014G24KT P6SM OVC035
FM090400 19012G22KT P6SM VCSH OVC025



MET'MAP, your aeronautical weather chart ! - Copyright ORBIFLY December 2007 - Disclaimer

ORBIFLY MET'MAP TEAM :

Programming & Development : Alexandra Zaïnal
Concept & original design : Baudouin d'Aumeries
Assistance for programming : Marc-Olivier Méhu
Technical & hardware support : Manuel Goepfert

Contact : metmap@orbifly.com




SOURCES & CREDITS :

   NOAA       Earth
Advisory